sensor_id;sensor_type;location;lat;lon;timestamp;P1;durP1;ratioP1;P2;durP2;ratioP2
11990;SDS011;6055;52.522;13.446;2022-08-19T00:00:16;4.90;;;4.18;;
11990;SDS011;6055;52.522;13.446;2022-08-19T00:02:44;5.28;;;4.15;;
11990;SDS011;6055;52.522;13.446;2022-08-19T00:05:11;4.47;;;3.90;;
11990;SDS011;6055;52.522;13.446;2022-08-19T00:07:37;5.90;;;3.65;;
11990;SDS011;6055;52.522;13.446;2022-08-19T00:10:06;4.18;;;3.78;;
11990;SDS011;6055;52.522;13.446;2022-08-19T00:12:33;4.95;;;3.95;;
11990;SDS011;6055;52.522;13.446;2022-08-19T00:14:58;4.53;;;3.63;;
11990;SDS011;6055;52.522;13.446;2022-08-19T00:17:24;5.07;;;4.20;;
11990;SDS011;6055;52.522;13.446;2022-08-19T00:19:49;6.43;;;3.92;;
11990;SDS011;6055;52.522;13.446;2022-08-19T00:22:15;4.90;;;3.88;;
11990;SDS011;6055;52.522;13.446;2022-08-19T00:24:42;5.05;;;4.55;;
11990;SDS011;6055;52.522;13.446;2022-08-19T00:27:08;6.57;;;4.00;;
11990;SDS011;6055;52.522;13.446;2022-08-19T00:29:34;6.55;;;4.32;;
11990;SDS011;6055;52.522;13.446;2022-08-19T00:32:00;5.68;;;4.13;;
11990;SDS011;6055;52.522;13.446;2022-08-19T00:34:25;6.43;;;4.85;;
11990;SDS011;6055;52.522;13.446;2022-08-19T00:36:55;4.75;;;3.72;;
11990;SDS011;6055;52.522;13.446;2022-08-19T00:39:21;4.32;;;3.92;;
11990;SDS011;6055;52.522;13.446;2022-08-19T00:41:47;7.03;;;4.90;;
11990;SDS011;6055;52.522;13.446;2022-08-19T00:44:19;6.57;;;4.88;;
11990;SDS011;6055;52.522;13.446;2022-08-19T00:46:50;4.85;;;4.35;;
11990;SDS011;6055;52.522;13.446;2022-08-19T00:49:19;5.50;;;4.22;;
11990;SDS011;6055;52.522;13.446;2022-08-19T00:52:04;6.38;;;5.07;;
11990;SDS011;6055;52.522;13.446;2022-08-19T00:54:33;5.82;;;4.53;;
11990;SDS011;6055;52.522;13.446;2022-08-19T00:57:02;5.05;;;4.25;;
11990;SDS011;6055;52.522;13.446;2022-08-19T00:59:31;6.65;;;4.60;;
11990;SDS011;6055;52.522;13.446;2022-08-19T01:01:57;4.57;;;3.78;;
11990;SDS011;6055;52.522;13.446;2022-08-19T01:04:23;6.25;;;4.95;;
11990;SDS011;6055;52.522;13.446;2022-08-19T01:06:48;5.85;;;4.75;;
11990;SDS011;6055;52.522;13.446;2022-08-19T01:09:13;5.80;;;5.00;;
11990;SDS011;6055;52.522;13.446;2022-08-19T01:11:40;4.68;;;3.95;;
11990;SDS011;6055;52.522;13.446;2022-08-19T01:14:08;6.45;;;4.63;;
11990;SDS011;6055;52.522;13.446;2022-08-19T01:16:35;5.10;;;4.32;;
11990;SDS011;6055;52.522;13.446;2022-08-19T01:19:02;6.60;;;4.40;;
11990;SDS011;6055;52.522;13.446;2022-08-19T01:21:31;3.95;;;3.55;;
11990;SDS011;6055;52.522;13.446;2022-08-19T01:24:03;4.85;;;4.18;;
11990;SDS011;6055;52.522;13.446;2022-08-19T01:26:28;7.03;;;4.88;;
11990;SDS011;6055;52.522;13.446;2022-08-19T01:28:55;5.22;;;4.15;;
11990;SDS011;6055;52.522;13.446;2022-08-19T01:31:23;4.82;;;3.97;;
11990;SDS011;6055;52.522;13.446;2022-08-19T01:33:50;4.72;;;4.25;;
11990;SDS011;6055;52.522;13.446;2022-08-19T01:39:02;5.97;;;5.05;;
11990;SDS011;6055;52.522;13.446;2022-08-19T01:41:29;6.75;;;4.38;;
11990;SDS011;6055;52.522;13.446;2022-08-19T01:43:55;4.53;;;3.92;;
11990;SDS011;6055;52.522;13.446;2022-08-19T01:46:21;6.80;;;4.47;;
11990;SDS011;6055;52.522;13.446;2022-08-19T01:48:47;4.85;;;4.05;;
11990;SDS011;6055;52.522;13.446;2022-08-19T01:51:12;4.97;;;4.30;;
11990;SDS011;6055;52.522;13.446;2022-08-19T01:53:39;6.25;;;4.82;;
11990;SDS011;6055;52.522;13.446;2022-08-19T01:56:05;6.40;;;4.93;;
11990;SDS011;6055;52.522;13.446;2022-08-19T01:58:33;5.88;;;4.35;;
11990;SDS011;6055;52.522;13.446;2022-08-19T02:01:03;5.22;;;4.22;;
11990;SDS011;6055;52.522;13.446;2022-08-19T02:03:29;7.38;;;5.30;;
11990;SDS011;6055;52.522;13.446;2022-08-19T02:05:59;5.90;;;4.90;;
11990;SDS011;6055;52.522;13.446;2022-08-19T02:08:27;6.13;;;4.25;;
11990;SDS011;6055;52.522;13.446;2022-08-19T02:10:54;5.65;;;4.38;;
11990;SDS011;6055;52.522;13.446;2022-08-19T02:13:21;5.65;;;3.83;;
11990;SDS011;6055;52.522;13.446;2022-08-19T02:15:47;5.15;;;4.38;;
11990;SDS011;6055;52.522;13.446;2022-08-19T02:18:12;6.30;;;4.72;;
11990;SDS011;6055;52.522;13.446;2022-08-19T02:20:39;6.00;;;4.63;;
11990;SDS011;6055;52.522;13.446;2022-08-19T02:23:05;6.07;;;4.68;;
11990;SDS011;6055;52.522;13.446;2022-08-19T02:25:31;4.95;;;4.30;;
11990;SDS011;6055;52.522;13.446;2022-08-19T02:27:57;5.72;;;4.25;;
11990;SDS011;6055;52.522;13.446;2022-08-19T02:30:23;5.20;;;4.63;;
11990;SDS011;6055;52.522;13.446;2022-08-19T02:32:49;5.35;;;4.47;;
11990;SDS011;6055;52.522;13.446;2022-08-19T02:35:16;9.18;;;4.25;;
11990;SDS011;6055;52.522;13.446;2022-08-19T02:37:42;5.78;;;4.78;;
11990;SDS011;6055;52.522;13.446;2022-08-19T02:40:27;5.13;;;4.47;;
11990;SDS011;6055;52.522;13.446;2022-08-19T02:42:58;4.82;;;3.92;;
11990;SDS011;6055;52.522;13.446;2022-08-19T02:45:24;5.53;;;4.35;;
11990;SDS011;6055;52.522;13.446;2022-08-19T02:47:49;5.28;;;3.53;;
11990;SDS011;6055;52.522;13.446;2022-08-19T02:50:15;4.88;;;4.15;;
11990;SDS011;6055;52.522;13.446;2022-08-19T02:52:40;5.93;;;4.63;;
11990;SDS011;6055;52.522;13.446;2022-08-19T02:55:06;5.28;;;4.25;;
11990;SDS011;6055;52.522;13.446;2022-08-19T02:57:32;4.90;;;3.95;;
11990;SDS011;6055;52.522;13.446;2022-08-19T02:59:59;5.78;;;4.70;;
11990;SDS011;6055;52.522;13.446;2022-08-19T03:02:24;5.07;;;4.20;;
11990;SDS011;6055;52.522;13.446;2022-08-19T03:04:50;6.43;;;4.72;;
11990;SDS011;6055;52.522;13.446;2022-08-19T03:07:15;6.05;;;4.50;;
11990;SDS011;6055;52.522;13.446;2022-08-19T03:09:43;5.60;;;4.50;;
11990;SDS011;6055;52.522;13.446;2022-08-19T03:12:08;6.43;;;5.10;;
11990;SDS011;6055;52.522;13.446;2022-08-19T03:14:34;5.68;;;4.47;;
11990;SDS011;6055;52.522;13.446;2022-08-19T03:17:00;7.60;;;4.47;;
11990;SDS011;6055;52.522;13.446;2022-08-19T03:19:26;6.35;;;4.28;;
11990;SDS011;6055;52.522;13.446;2022-08-19T03:21:52;5.80;;;4.05;;
11990;SDS011;6055;52.522;13.446;2022-08-19T03:24:18;5.47;;;4.15;;
11990;SDS011;6055;52.522;13.446;2022-08-19T03:26:46;4.93;;;4.18;;
11990;SDS011;6055;52.522;13.446;2022-08-19T03:29:13;6.93;;;4.47;;
11990;SDS011;6055;52.522;13.446;2022-08-19T03:31:40;3.88;;;3.35;;
11990;SDS011;6055;52.522;13.446;2022-08-19T03:34:08;4.68;;;3.78;;
11990;SDS011;6055;52.522;13.446;2022-08-19T03:36:36;5.45;;;4.25;;
11990;SDS011;6055;52.522;13.446;2022-08-19T03:39:02;6.28;;;4.60;;
11990;SDS011;6055;52.522;13.446;2022-08-19T03:41:32;4.57;;;4.15;;
11990;SDS011;6055;52.522;13.446;2022-08-19T03:44:01;4.85;;;4.35;;
11990;SDS011;6055;52.522;13.446;2022-08-19T03:46:27;5.75;;;4.80;;
11990;SDS011;6055;52.522;13.446;2022-08-19T03:48:55;5.80;;;4.40;;
11990;SDS011;6055;52.522;13.446;2022-08-19T03:51:32;5.93;;;4.60;;
11990;SDS011;6055;52.522;13.446;2022-08-19T03:54:00;4.50;;;3.97;;
11990;SDS011;6055;52.522;13.446;2022-08-19T03:56:29;5.20;;;3.97;;
11990;SDS011;6055;52.522;13.446;2022-08-19T03:58:55;4.63;;;4.18;;
11990;SDS011;6055;52.522;13.446;2022-08-19T04:01:23;5.25;;;4.43;;
11990;SDS011;6055;52.522;13.446;2022-08-19T04:03:51;4.38;;;3.97;;
11990;SDS011;6055;52.522;13.446;2022-08-19T04:06:19;6.85;;;4.15;;
11990;SDS011;6055;52.522;13.446;2022-08-19T04:08:47;4.95;;;4.05;;
11990;SDS011;6055;52.522;13.446;2022-08-19T04:11:16;4.97;;;3.90;;
11990;SDS011;6055;52.522;13.446;2022-08-19T04:13:45;5.10;;;3.97;;
11990;SDS011;6055;52.522;13.446;2022-08-19T04:16:10;5.70;;;4.88;;
11990;SDS011;6055;52.522;13.446;2022-08-19T04:18:37;4.88;;;4.38;;
11990;SDS011;6055;52.522;13.446;2022-08-19T04:21:04;4.68;;;3.95;;
11990;SDS011;6055;52.522;13.446;2022-08-19T04:23:30;5.85;;;4.75;;
11990;SDS011;6055;52.522;13.446;2022-08-19T04:25:56;5.53;;;4.45;;
11990;SDS011;6055;52.522;13.446;2022-08-19T04:28:22;7.38;;;5.20;;
11990;SDS011;6055;52.522;13.446;2022-08-19T04:30:49;5.05;;;4.13;;
11990;SDS011;6055;52.522;13.446;2022-08-19T04:33:17;5.20;;;4.47;;
11990;SDS011;6055;52.522;13.446;2022-08-19T04:35:46;6.40;;;4.68;;
11990;SDS011;6055;52.522;13.446;2022-08-19T04:38:13;5.13;;;4.20;;
11990;SDS011;6055;52.522;13.446;2022-08-19T04:40:41;4.10;;;3.70;;
11990;SDS011;6055;52.522;13.446;2022-08-19T04:43:27;6.63;;;4.82;;
11990;SDS011;6055;52.522;13.446;2022-08-19T04:45:53;6.93;;;4.65;;
11990;SDS011;6055;52.522;13.446;2022-08-19T04:48:19;5.95;;;4.45;;
11990;SDS011;6055;52.522;13.446;2022-08-19T04:50:55;5.95;;;4.30;;
11990;SDS011;6055;52.522;13.446;2022-08-19T04:53:25;5.57;;;4.20;;
11990;SDS011;6055;52.522;13.446;2022-08-19T04:55:53;4.35;;;3.80;;
11990;SDS011;6055;52.522;13.446;2022-08-19T04:58:19;5.97;;;4.80;;
11990;SDS011;6055;52.522;13.446;2022-08-19T05:00:45;7.50;;;5.22;;
11990;SDS011;6055;52.522;13.446;2022-08-19T05:03:10;6.50;;;4.55;;
11990;SDS011;6055;52.522;13.446;2022-08-19T05:05:40;6.57;;;4.97;;
11990;SDS011;6055;52.522;13.446;2022-08-19T05:08:06;6.05;;;4.95;;
11990;SDS011;6055;52.522;13.446;2022-08-19T05:10:34;5.30;;;4.22;;
11990;SDS011;6055;52.522;13.446;2022-08-19T05:13:00;6.55;;;4.85;;
11990;SDS011;6055;52.522;13.446;2022-08-19T05:15:26;5.47;;;4.63;;
11990;SDS011;6055;52.522;13.446;2022-08-19T05:17:52;6.63;;;5.15;;
11990;SDS011;6055;52.522;13.446;2022-08-19T05:20:37;4.93;;;4.43;;
11990;SDS011;6055;52.522;13.446;2022-08-19T05:23:21;5.40;;;4.05;;
11990;SDS011;6055;52.522;13.446;2022-08-19T05:25:47;5.70;;;4.95;;
11990;SDS011;6055;52.522;13.446;2022-08-19T05:28:13;5.65;;;4.38;;
11990;SDS011;6055;52.522;13.446;2022-08-19T05:30:38;6.30;;;4.75;;
11990;SDS011;6055;52.522;13.446;2022-08-19T05:33:06;6.35;;;4.88;;
11990;SDS011;6055;52.522;13.446;2022-08-19T05:35:35;6.15;;;4.63;;
11990;SDS011;6055;52.522;13.446;2022-08-19T05:38:01;9.75;;;4.97;;
11990;SDS011;6055;52.522;13.446;2022-08-19T05:40:27;6.03;;;4.30;;
11990;SDS011;6055;52.522;13.446;2022-08-19T05:42:53;5.00;;;4.32;;
11990;SDS011;6055;52.522;13.446;2022-08-19T05:45:19;5.63;;;4.57;;
11990;SDS011;6055;52.522;13.446;2022-08-19T05:47:46;5.32;;;4.57;;
11990;SDS011;6055;52.522;13.446;2022-08-19T05:50:11;6.32;;;5.03;;
11990;SDS011;6055;52.522;13.446;2022-08-19T05:52:37;6.18;;;4.82;;
11990;SDS011;6055;52.522;13.446;2022-08-19T05:55:04;9.00;;;5.07;;
11990;SDS011;6055;52.522;13.446;2022-08-19T05:57:30;5.60;;;4.45;;
11990;SDS011;6055;52.522;13.446;2022-08-19T05:59:56;6.35;;;4.60;;
11990;SDS011;6055;52.522;13.446;2022-08-19T06:02:22;5.47;;;4.80;;
11990;SDS011;6055;52.522;13.446;2022-08-19T06:04:47;5.57;;;4.28;;
11990;SDS011;6055;52.522;13.446;2022-08-19T06:07:14;7.03;;;5.05;;
11990;SDS011;6055;52.522;13.446;2022-08-19T06:09:40;6.93;;;4.13;;
11990;SDS011;6055;52.522;13.446;2022-08-19T06:12:06;4.68;;;4.22;;
11990;SDS011;6055;52.522;13.446;2022-08-19T06:14:32;6.43;;;5.30;;
11990;SDS011;6055;52.522;13.446;2022-08-19T06:16:59;6.72;;;5.05;;
11990;SDS011;6055;52.522;13.446;2022-08-19T06:19:27;5.38;;;4.45;;
11990;SDS011;6055;52.522;13.446;2022-08-19T06:21:55;6.45;;;4.70;;
11990;SDS011;6055;52.522;13.446;2022-08-19T06:24:22;6.53;;;5.10;;
11990;SDS011;6055;52.522;13.446;2022-08-19T06:26:50;5.70;;;4.63;;
11990;SDS011;6055;52.522;13.446;2022-08-19T06:29:18;5.53;;;5.00;;
11990;SDS011;6055;52.522;13.446;2022-08-19T06:31:47;6.80;;;5.32;;
11990;SDS011;6055;52.522;13.446;2022-08-19T06:34:17;6.90;;;5.18;;
11990;SDS011;6055;52.522;13.446;2022-08-19T06:36:45;6.45;;;5.20;;
11990;SDS011;6055;52.522;13.446;2022-08-19T06:39:14;7.88;;;5.55;;
11990;SDS011;6055;52.522;13.446;2022-08-19T06:41:42;5.93;;;4.90;;
11990;SDS011;6055;52.522;13.446;2022-08-19T06:44:10;6.93;;;5.53;;
11990;SDS011;6055;52.522;13.446;2022-08-19T06:46:37;6.07;;;5.07;;
11990;SDS011;6055;52.522;13.446;2022-08-19T06:49:03;6.55;;;5.07;;
11990;SDS011;6055;52.522;13.446;2022-08-19T06:51:29;7.05;;;5.68;;
11990;SDS011;6055;52.522;13.446;2022-08-19T06:53:56;7.53;;;5.47;;
11990;SDS011;6055;52.522;13.446;2022-08-19T06:56:26;7.15;;;5.43;;
11990;SDS011;6055;52.522;13.446;2022-08-19T06:59:00;5.93;;;4.35;;
11990;SDS011;6055;52.522;13.446;2022-08-19T07:01:27;7.00;;;5.57;;
11990;SDS011;6055;52.522;13.446;2022-08-19T07:03:52;7.43;;;4.82;;
11990;SDS011;6055;52.522;13.446;2022-08-19T07:06:18;6.70;;;5.25;;
11990;SDS011;6055;52.522;13.446;2022-08-19T07:08:45;7.45;;;5.38;;
11990;SDS011;6055;52.522;13.446;2022-08-19T07:11:14;6.28;;;5.25;;
11990;SDS011;6055;52.522;13.446;2022-08-19T07:13:42;5.55;;;4.68;;
11990;SDS011;6055;52.522;13.446;2022-08-19T07:16:11;5.90;;;4.45;;
11990;SDS011;6055;52.522;13.446;2022-08-19T07:18:39;6.30;;;5.18;;
11990;SDS011;6055;52.522;13.446;2022-08-19T07:21:09;5.72;;;4.85;;
11990;SDS011;6055;52.522;13.446;2022-08-19T07:23:37;7.93;;;5.88;;
11990;SDS011;6055;52.522;13.446;2022-08-19T07:26:10;7.25;;;5.50;;
11990;SDS011;6055;52.522;13.446;2022-08-19T07:28:39;7.35;;;5.32;;
11990;SDS011;6055;52.522;13.446;2022-08-19T07:31:07;5.90;;;5.18;;
11990;SDS011;6055;52.522;13.446;2022-08-19T07:33:36;6.47;;;5.18;;
11990;SDS011;6055;52.522;13.446;2022-08-19T07:36:06;6.38;;;5.63;;
11990;SDS011;6055;52.522;13.446;2022-08-19T07:38:36;6.82;;;5.25;;
11990;SDS011;6055;52.522;13.446;2022-08-19T07:41:04;7.28;;;5.95;;
11990;SDS011;6055;52.522;13.446;2022-08-19T07:43:30;6.50;;;4.88;;
11990;SDS011;6055;52.522;13.446;2022-08-19T07:45:56;9.07;;;5.55;;
11990;SDS011;6055;52.522;13.446;2022-08-19T07:48:22;6.90;;;5.97;;
11990;SDS011;6055;52.522;13.446;2022-08-19T07:50:50;7.53;;;6.05;;
11990;SDS011;6055;52.522;13.446;2022-08-19T07:53:22;7.57;;;5.65;;
11990;SDS011;6055;52.522;13.446;2022-08-19T07:55:49;8.27;;;5.93;;
11990;SDS011;6055;52.522;13.446;2022-08-19T07:58:15;6.70;;;5.60;;
11990;SDS011;6055;52.522;13.446;2022-08-19T08:00:44;9.25;;;6.47;;
11990;SDS011;6055;52.522;13.446;2022-08-19T08:03:10;6.63;;;5.93;;
11990;SDS011;6055;52.522;13.446;2022-08-19T08:05:37;7.60;;;5.70;;
11990;SDS011;6055;52.522;13.446;2022-08-19T08:08:21;8.07;;;5.82;;
11990;SDS011;6055;52.522;13.446;2022-08-19T08:11:07;7.07;;;6.22;;
11990;SDS011;6055;52.522;13.446;2022-08-19T08:13:33;7.70;;;5.95;;
11990;SDS011;6055;52.522;13.446;2022-08-19T08:16:00;7.53;;;6.63;;
11990;SDS011;6055;52.522;13.446;2022-08-19T08:18:26;6.97;;;5.93;;
11990;SDS011;6055;52.522;13.446;2022-08-19T08:20:51;7.72;;;6.35;;
11990;SDS011;6055;52.522;13.446;2022-08-19T08:23:17;7.18;;;5.80;;
11990;SDS011;6055;52.522;13.446;2022-08-19T08:25:52;6.68;;;5.97;;
11990;SDS011;6055;52.522;13.446;2022-08-19T08:28:20;7.85;;;6.43;;
11990;SDS011;6055;52.522;13.446;2022-08-19T08:30:46;7.15;;;6.22;;
11990;SDS011;6055;52.522;13.446;2022-08-19T08:33:13;9.55;;;6.82;;
11990;SDS011;6055;52.522;13.446;2022-08-19T08:35:43;7.53;;;6.18;;
11990;SDS011;6055;52.522;13.446;2022-08-19T08:38:10;7.80;;;6.10;;
11990;SDS011;6055;52.522;13.446;2022-08-19T08:40:50;9.07;;;6.38;;
11990;SDS011;6055;52.522;13.446;2022-08-19T08:43:27;8.55;;;6.45;;
11990;SDS011;6055;52.522;13.446;2022-08-19T08:45:59;8.13;;;7.15;;
11990;SDS011;6055;52.522;13.446;2022-08-19T08:48:35;7.63;;;5.93;;
11990;SDS011;6055;52.522;13.446;2022-08-19T08:51:09;6.63;;;5.88;;
11990;SDS011;6055;52.522;13.446;2022-08-19T08:53:37;8.43;;;6.32;;
11990;SDS011;6055;52.522;13.446;2022-08-19T08:56:04;8.32;;;6.72;;
11990;SDS011;6055;52.522;13.446;2022-08-19T08:58:39;7.63;;;6.18;;
11990;SDS011;6055;52.522;13.446;2022-08-19T09:01:21;8.48;;;6.43;;
11990;SDS011;6055;52.522;13.446;2022-08-19T09:03:47;9.15;;;6.65;;
11990;SDS011;6055;52.522;13.446;2022-08-19T09:09:17;7.40;;;5.97;;
11990;SDS011;6055;52.522;13.446;2022-08-19T09:11:55;6.90;;;5.88;;
11990;SDS011;6055;52.522;13.446;2022-08-19T09:14:27;6.68;;;5.97;;
11990;SDS011;6055;52.522;13.446;2022-08-19T09:17:20;8.50;;;6.38;;
11990;SDS011;6055;52.522;13.446;2022-08-19T09:20:01;9.35;;;6.82;;
11990;SDS011;6055;52.522;13.446;2022-08-19T09:22:37;8.30;;;7.00;;
11990;SDS011;6055;52.522;13.446;2022-08-19T09:25:06;7.97;;;6.05;;
11990;SDS011;6055;52.522;13.446;2022-08-19T09:27:35;8.57;;;6.65;;
11990;SDS011;6055;52.522;13.446;2022-08-19T09:30:03;7.97;;;5.43;;
11990;SDS011;6055;52.522;13.446;2022-08-19T09:32:29;8.70;;;6.60;;
11990;SDS011;6055;52.522;13.446;2022-08-19T09:34:55;6.78;;;6.07;;
11990;SDS011;6055;52.522;13.446;2022-08-19T09:37:23;7.22;;;6.18;;
11990;SDS011;6055;52.522;13.446;2022-08-19T09:39:49;8.88;;;6.68;;
11990;SDS011;6055;52.522;13.446;2022-08-19T09:42:15;7.45;;;6.15;;
11990;SDS011;6055;52.522;13.446;2022-08-19T09:44:41;8.02;;;6.18;;
11990;SDS011;6055;52.522;13.446;2022-08-19T09:47:06;7.47;;;6.20;;
11990;SDS011;6055;52.522;13.446;2022-08-19T09:49:33;8.60;;;7.13;;
11990;SDS011;6055;52.522;13.446;2022-08-19T09:51:59;6.70;;;6.00;;
11990;SDS011;6055;52.522;13.446;2022-08-19T09:54:25;6.90;;;5.55;;
11990;SDS011;6055;52.522;13.446;2022-08-19T09:56:54;7.32;;;5.72;;
11990;SDS011;6055;52.522;13.446;2022-08-19T09:59:22;6.00;;;5.18;;
11990;SDS011;6055;52.522;13.446;2022-08-19T10:01:48;6.40;;;5.40;;
11990;SDS011;6055;52.522;13.446;2022-08-19T10:04:14;6.53;;;5.25;;
11990;SDS011;6055;52.522;13.446;2022-08-19T10:06:40;8.00;;;5.60;;
11990;SDS011;6055;52.522;13.446;2022-08-19T10:09:07;7.43;;;5.90;;
11990;SDS011;6055;52.522;13.446;2022-08-19T10:11:34;7.80;;;5.97;;
11990;SDS011;6055;52.522;13.446;2022-08-19T10:14:02;7.60;;;5.68;;
11990;SDS011;6055;52.522;13.446;2022-08-19T10:16:30;6.70;;;5.03;;
11990;SDS011;6055;52.522;13.446;2022-08-19T10:18:56;6.75;;;5.78;;
11990;SDS011;6055;52.522;13.446;2022-08-19T10:21:24;9.38;;;6.82;;
11990;SDS011;6055;52.522;13.446;2022-08-19T10:23:53;8.23;;;6.45;;
11990;SDS011;6055;52.522;13.446;2022-08-19T10:26:23;7.00;;;5.68;;
11990;SDS011;6055;52.522;13.446;2022-08-19T10:28:51;7.55;;;5.90;;
11990;SDS011;6055;52.522;13.446;2022-08-19T10:31:18;7.03;;;5.95;;
11990;SDS011;6055;52.522;13.446;2022-08-19T10:33:46;7.15;;;5.97;;
11990;SDS011;6055;52.522;13.446;2022-08-19T10:36:17;7.03;;;5.18;;
11990;SDS011;6055;52.522;13.446;2022-08-19T10:38:45;7.43;;;5.13;;
11990;SDS011;6055;52.522;13.446;2022-08-19T10:41:16;7.22;;;5.45;;
11990;SDS011;6055;52.522;13.446;2022-08-19T10:43:43;6.30;;;5.35;;
11990;SDS011;6055;52.522;13.446;2022-08-19T10:46:11;8.75;;;5.60;;
11990;SDS011;6055;52.522;13.446;2022-08-19T10:48:38;6.32;;;5.05;;
11990;SDS011;6055;52.522;13.446;2022-08-19T10:51:05;8.75;;;6.28;;
11990;SDS011;6055;52.522;13.446;2022-08-19T10:53:49;7.13;;;6.07;;
11990;SDS011;6055;52.522;13.446;2022-08-19T10:56:15;6.00;;;4.95;;
11990;SDS011;6055;52.522;13.446;2022-08-19T10:59:00;6.47;;;5.40;;
11990;SDS011;6055;52.522;13.446;2022-08-19T11:01:28;5.63;;;5.03;;
11990;SDS011;6055;52.522;13.446;2022-08-19T11:03:56;7.03;;;5.38;;
11990;SDS011;6055;52.522;13.446;2022-08-19T11:06:22;5.93;;;5.13;;
11990;SDS011;6055;52.522;13.446;2022-08-19T11:08:49;10.38;;;5.90;;
11990;SDS011;6055;52.522;13.446;2022-08-19T11:11:16;6.82;;;5.25;;
11990;SDS011;6055;52.522;13.446;2022-08-19T11:13:42;7.57;;;5.70;;
11990;SDS011;6055;52.522;13.446;2022-08-19T11:16:10;5.40;;;4.80;;
11990;SDS011;6055;52.522;13.446;2022-08-19T11:25:23;7.75;;;5.25;;
11990;SDS011;6055;52.522;13.446;2022-08-19T11:27:48;7.70;;;5.63;;
11990;SDS011;6055;52.522;13.446;2022-08-19T11:30:15;8.60;;;5.65;;
11990;SDS011;6055;52.522;13.446;2022-08-19T11:32:41;6.13;;;4.75;;
11990;SDS011;6055;52.522;13.446;2022-08-19T11:35:07;7.20;;;5.95;;
11990;SDS011;6055;52.522;13.446;2022-08-19T11:37:33;7.28;;;5.20;;
11990;SDS011;6055;52.522;13.446;2022-08-19T11:40:02;6.78;;;5.47;;
11990;SDS011;6055;52.522;13.446;2022-08-19T11:42:28;7.53;;;5.78;;
11990;SDS011;6055;52.522;13.446;2022-08-19T11:45:12;6.45;;;5.18;;
11990;SDS011;6055;52.522;13.446;2022-08-19T11:47:38;6.38;;;5.30;;
11990;SDS011;6055;52.522;13.446;2022-08-19T11:50:04;7.20;;;5.57;;
11990;SDS011;6055;52.522;13.446;2022-08-19T11:52:30;6.40;;;4.50;;
11990;SDS011;6055;52.522;13.446;2022-08-19T11:54:56;6.68;;;5.20;;
11990;SDS011;6055;52.522;13.446;2022-08-19T11:57:21;6.13;;;4.85;;
11990;SDS011;6055;52.522;13.446;2022-08-19T11:59:48;5.35;;;4.05;;
11990;SDS011;6055;52.522;13.446;2022-08-19T12:02:15;7.28;;;5.22;;
11990;SDS011;6055;52.522;13.446;2022-08-19T12:04:41;5.38;;;4.55;;
11990;SDS011;6055;52.522;13.446;2022-08-19T12:07:06;6.22;;;4.80;;
11990;SDS011;6055;52.522;13.446;2022-08-19T12:09:32;5.82;;;4.55;;
11990;SDS011;6055;52.522;13.446;2022-08-19T12:11:59;4.75;;;4.00;;
11990;SDS011;6055;52.522;13.446;2022-08-19T12:14:26;6.10;;;5.05;;
11990;SDS011;6055;52.522;13.446;2022-08-19T12:16:54;4.95;;;3.97;;
11990;SDS011;6055;52.522;13.446;2022-08-19T12:19:20;4.80;;;4.20;;
11990;SDS011;6055;52.522;13.446;2022-08-19T12:21:45;6.18;;;4.32;;
11990;SDS011;6055;52.522;13.446;2022-08-19T12:24:11;5.75;;;4.25;;
11990;SDS011;6055;52.522;13.446;2022-08-19T12:26:37;6.22;;;4.43;;
11990;SDS011;6055;52.522;13.446;2022-08-19T12:29:03;6.95;;;4.38;;
11990;SDS011;6055;52.522;13.446;2022-08-19T12:31:29;4.22;;;3.83;;
11990;SDS011;6055;52.522;13.446;2022-08-19T12:33:55;5.85;;;4.32;;
11990;SDS011;6055;52.522;13.446;2022-08-19T12:36:20;5.25;;;4.10;;
11990;SDS011;6055;52.522;13.446;2022-08-19T12:38:47;5.07;;;4.28;;
11990;SDS011;6055;52.522;13.446;2022-08-19T12:41:14;4.03;;;3.55;;
11990;SDS011;6055;52.522;13.446;2022-08-19T12:43:42;4.57;;;4.05;;
11990;SDS011;6055;52.522;13.446;2022-08-19T12:46:08;4.78;;;3.80;;
11990;SDS011;6055;52.522;13.446;2022-08-19T12:48:34;4.63;;;3.92;;
11990;SDS011;6055;52.522;13.446;2022-08-19T12:51:00;4.15;;;3.75;;
11990;SDS011;6055;52.522;13.446;2022-08-19T12:53:31;4.35;;;3.70;;
11990;SDS011;6055;52.522;13.446;2022-08-19T12:55:56;5.60;;;3.70;;
11990;SDS011;6055;52.522;13.446;2022-08-19T12:58:23;5.35;;;4.10;;
11990;SDS011;6055;52.522;13.446;2022-08-19T13:00:48;4.30;;;3.80;;
11990;SDS011;6055;52.522;13.446;2022-08-19T13:03:14;5.45;;;4.03;;
11990;SDS011;6055;52.522;13.446;2022-08-19T13:05:40;4.63;;;3.80;;
11990;SDS011;6055;52.522;13.446;2022-08-19T13:08:06;6.22;;;4.80;;
11990;SDS011;6055;52.522;13.446;2022-08-19T13:10:33;5.22;;;4.38;;
11990;SDS011;6055;52.522;13.446;2022-08-19T13:13:00;4.25;;;3.85;;
11990;SDS011;6055;52.522;13.446;2022-08-19T13:15:28;5.57;;;4.28;;
11990;SDS011;6055;52.522;13.446;2022-08-19T13:17:56;6.20;;;4.75;;
11990;SDS011;6055;52.522;13.446;2022-08-19T13:20:22;5.20;;;4.70;;
11990;SDS011;6055;52.522;13.446;2022-08-19T13:22:48;5.45;;;4.80;;
11990;SDS011;6055;52.522;13.446;2022-08-19T13:25:15;4.97;;;4.28;;
11990;SDS011;6055;52.522;13.446;2022-08-19T13:27:43;5.78;;;4.95;;
11990;SDS011;6055;52.522;13.446;2022-08-19T13:30:09;5.78;;;4.55;;
11990;SDS011;6055;52.522;13.446;2022-08-19T13:32:55;5.75;;;4.10;;
11990;SDS011;6055;52.522;13.446;2022-08-19T13:35:39;5.05;;;3.88;;
11990;SDS011;6055;52.522;13.446;2022-08-19T13:38:08;4.47;;;4.07;;
11990;SDS011;6055;52.522;13.446;2022-08-19T13:40:35;5.10;;;4.32;;
11990;SDS011;6055;52.522;13.446;2022-08-19T13:43:01;6.07;;;4.90;;
11990;SDS011;6055;52.522;13.446;2022-08-19T13:45:29;5.95;;;4.57;;
11990;SDS011;6055;52.522;13.446;2022-08-19T13:47:58;4.65;;;3.92;;
11990;SDS011;6055;52.522;13.446;2022-08-19T13:50:26;5.25;;;4.30;;
11990;SDS011;6055;52.522;13.446;2022-08-19T13:52:53;4.70;;;4.30;;
11990;SDS011;6055;52.522;13.446;2022-08-19T13:55:19;5.65;;;4.57;;
11990;SDS011;6055;52.522;13.446;2022-08-19T13:57:45;6.63;;;4.50;;
11990;SDS011;6055;52.522;13.446;2022-08-19T14:00:12;5.90;;;4.53;;
11990;SDS011;6055;52.522;13.446;2022-08-19T14:02:42;7.15;;;4.75;;
11990;SDS011;6055;52.522;13.446;2022-08-19T14:05:09;5.18;;;4.20;;
11990;SDS011;6055;52.522;13.446;2022-08-19T14:07:37;5.00;;;4.28;;
11990;SDS011;6055;52.522;13.446;2022-08-19T14:10:04;4.88;;;4.38;;
11990;SDS011;6055;52.522;13.446;2022-08-19T14:12:31;5.65;;;4.43;;
11990;SDS011;6055;52.522;13.446;2022-08-19T14:14:57;5.15;;;4.40;;
11990;SDS011;6055;52.522;13.446;2022-08-19T14:17:23;5.45;;;4.88;;
11990;SDS011;6055;52.522;13.446;2022-08-19T14:19:49;5.35;;;4.82;;
11990;SDS011;6055;52.522;13.446;2022-08-19T14:22:20;6.38;;;5.07;;
11990;SDS011;6055;52.522;13.446;2022-08-19T14:24:46;5.55;;;4.30;;
11990;SDS011;6055;52.522;13.446;2022-08-19T14:27:13;5.47;;;4.78;;
11990;SDS011;6055;52.522;13.446;2022-08-19T14:29:39;4.63;;;4.13;;
11990;SDS011;6055;52.522;13.446;2022-08-19T14:32:04;4.95;;;4.05;;
11990;SDS011;6055;52.522;13.446;2022-08-19T14:34:30;5.00;;;4.40;;
11990;SDS011;6055;52.522;13.446;2022-08-19T14:36:56;5.68;;;5.00;;
11990;SDS011;6055;52.522;13.446;2022-08-19T14:39:22;4.85;;;4.35;;
11990;SDS011;6055;52.522;13.446;2022-08-19T14:41:48;5.63;;;4.53;;
11990;SDS011;6055;52.522;13.446;2022-08-19T14:44:13;5.43;;;4.32;;
11990;SDS011;6055;52.522;13.446;2022-08-19T14:46:39;4.82;;;4.18;;
11990;SDS011;6055;52.522;13.446;2022-08-19T14:49:05;4.57;;;4.13;;
11990;SDS011;6055;52.522;13.446;2022-08-19T14:51:31;4.93;;;3.70;;
11990;SDS011;6055;52.522;13.446;2022-08-19T14:53:57;5.50;;;3.88;;
11990;SDS011;6055;52.522;13.446;2022-08-19T14:56:24;4.95;;;4.22;;
11990;SDS011;6055;52.522;13.446;2022-08-19T14:58:52;4.75;;;4.07;;
11990;SDS011;6055;52.522;13.446;2022-08-19T15:01:19;9.30;;;4.28;;
11990;SDS011;6055;52.522;13.446;2022-08-19T15:03:47;4.13;;;3.72;;